createdAt,value
2022-09-18T00:00:35.475Z,94.85
2022-09-18T00:01:35.921Z,94.65
2022-09-18T00:02:35.481Z,94.55
2022-09-18T00:03:35.425Z,94.65
2022-09-18T00:04:35.426Z,94.65
2022-09-18T00:05:35.413Z,94.85
2022-09-18T00:06:35.765Z,95.06
2022-09-18T00:07:35.375Z,95.06
2022-09-18T00:08:35.365Z,95.06
2022-09-18T00:09:35.343Z,95.06
2022-09-18T00:10:35.774Z,95.06
2022-09-18T00:11:35.322Z,95.17
2022-09-18T00:12:35.312Z,95.27
2022-09-18T00:13:35.300Z,95.37
2022-09-18T00:14:35.294Z,95.37
2022-09-18T00:15:35.273Z,95.37
2022-09-18T00:16:35.737Z,95.47
2022-09-18T00:17:35.254Z,95.57
2022-09-18T00:18:35.243Z,95.57
2022-09-18T00:19:35.226Z,95.68
2022-09-18T00:20:35.209Z,95.78
2022-09-18T00:21:35.560Z,95.78
2022-09-18T00:22:35.182Z,95.89
2022-09-18T00:23:35.170Z,95.89
2022-09-18T00:24:35.163Z,95.89
2022-09-18T00:25:35.140Z,95.89
2022-09-18T00:26:35.571Z,95.89
2022-09-18T00:27:35.121Z,95.89
2022-09-18T00:28:35.109Z,95.89
2022-09-18T00:29:35.101Z,95.89
2022-09-18T00:30:35.089Z,95.89
2022-09-18T00:31:35.370Z,95.89
2022-09-18T00:32:35.057Z,95.78
2022-09-18T00:33:35.044Z,95.68
2022-09-18T00:34:35.035Z,95.68
2022-09-18T00:35:35.020Z,95.68
2022-09-18T00:36:35.385Z,95.78
2022-09-18T00:37:34.986Z,95.68
2022-09-18T00:38:35.138Z,95.78
2022-09-18T00:39:34.974Z,95.78
2022-09-18T00:40:35.006Z,95.78
2022-09-18T00:41:34.934Z,95.68
2022-09-18T00:42:35.284Z,95.78
2022-09-18T00:43:34.914Z,95.78
2022-09-18T00:44:34.905Z,95.78
2022-09-18T00:45:34.885Z,95.68
2022-09-18T00:46:34.949Z,95.57
2022-09-18T00:47:35.305Z,95.47
2022-09-18T00:48:34.853Z,95.32
2022-09-18T00:49:34.843Z,95.32
2022-09-18T00:50:34.826Z,95.32
2022-09-18T00:51:34.822Z,95.23
2022-09-18T00:52:35.222Z,95.12
2022-09-18T00:53:34.793Z,95.12
2022-09-18T00:54:34.769Z,95.02
2022-09-18T00:55:34.759Z,95.02
2022-09-18T00:56:34.750Z,94.92
2022-09-18T00:57:35.101Z,94.92
2022-09-18T00:58:34.721Z,94.81
2022-09-18T00:59:34.705Z,94.81
2022-09-18T01:00:34.729Z,94.81
2022-09-18T01:01:34.797Z,94.71
2022-09-18T01:02:35.042Z,94.51
2022-09-18T01:03:34.639Z,94.40
2022-09-18T01:04:34.640Z,94.20
2022-09-18T01:05:34.619Z,94.20
2022-09-18T01:06:34.611Z,94.10
2022-09-18T01:07:35.019Z,94.10
2022-09-18T01:08:34.589Z,93.99
2022-09-18T01:09:34.567Z,94.10
2022-09-18T01:10:34.565Z,93.99
2022-09-18T01:11:34.549Z,93.89
2022-09-18T01:12:34.960Z,93.89
2022-09-18T01:13:34.528Z,93.89
2022-09-18T01:14:34.516Z,93.99
2022-09-18T01:15:34.502Z,93.99
2022-09-18T01:16:34.537Z,93.99
2022-09-18T01:17:34.867Z,93.99
2022-09-18T01:18:34.503Z,93.99
2022-09-18T01:19:34.454Z,93.99
2022-09-18T01:20:34.446Z,93.89
2022-09-18T01:21:34.424Z,93.79
2022-09-18T01:22:34.774Z,93.68
2022-09-18T01:23:34.395Z,93.68
2022-09-18T01:24:34.387Z,93.74
2022-09-18T01:25:34.376Z,93.74
2022-09-18T01:26:34.369Z,93.64
2022-09-18T01:27:34.774Z,93.44
2022-09-18T01:28:34.353Z,93.44
2022-09-18T01:29:34.320Z,93.44
2022-09-18T01:30:34.303Z,93.44
2022-09-18T01:31:34.344Z,93.33
2022-09-18T01:32:34.703Z,93.33
2022-09-18T01:33:34.272Z,93.23
2022-09-18T01:34:34.267Z,93.33
2022-09-18T01:35:41.676Z,93.33
2022-09-18T01:36:35.245Z,93.33
2022-09-18T01:37:34.581Z,93.33
2022-09-18T01:38:34.204Z,93.33
2022-09-18T01:39:34.198Z,93.13
2022-09-18T01:40:34.265Z,93.23
2022-09-18T01:41:34.173Z,93.33
2022-09-18T01:42:34.579Z,93.13
2022-09-18T01:43:34.138Z,93.02
2022-09-18T01:44:34.142Z,92.93
2022-09-18T01:45:34.119Z,92.82
2022-09-18T01:46:34.196Z,92.82
2022-09-18T01:47:34.507Z,92.93
2022-09-18T01:48:34.077Z,92.82
2022-09-18T01:49:34.057Z,92.72
2022-09-18T01:50:34.051Z,92.72
2022-09-18T01:51:34.039Z,92.72
2022-09-18T01:52:34.376Z,92.61
2022-09-18T01:53:34.007Z,92.61
2022-09-18T01:54:33.997Z,92.61
2022-09-18T01:55:33.984Z,92.72
2022-09-18T01:56:33.986Z,92.61
2022-09-18T01:57:33.975Z,92.72
2022-09-18T01:58:34.286Z,92.78
2022-09-18T01:59:33.935Z,92.82
2022-09-18T02:00:33.925Z,92.41
2022-09-18T02:01:34.063Z,92.51
2022-09-18T02:02:34.018Z,92.51
2022-09-18T02:03:34.316Z,92.41
2022-09-18T02:04:33.872Z,92.51
2022-09-18T02:05:33.862Z,92.51
2022-09-18T02:06:33.847Z,92.51
2022-09-18T02:07:33.823Z,92.41
2022-09-18T02:08:34.241Z,92.51
2022-09-18T02:09:33.804Z,92.57
2022-09-18T02:10:33.796Z,92.72
2022-09-18T02:11:33.782Z,92.82
2022-09-18T02:12:33.775Z,92.82
2022-09-18T02:13:34.109Z,92.82
2022-09-18T02:14:33.742Z,92.72
2022-09-18T02:15:33.742Z,92.57
2022-09-18T02:16:33.792Z,92.57
2022-09-18T02:17:33.712Z,92.57
2022-09-18T02:18:34.136Z,92.57
2022-09-18T02:19:33.691Z,92.68
2022-09-18T02:20:33.671Z,92.68
2022-09-18T02:21:33.653Z,92.57
2022-09-18T02:22:33.643Z,92.57
2022-09-18T02:23:34.061Z,92.57
2022-09-18T02:24:33.623Z,92.57
2022-09-18T02:25:33.609Z,92.68
2022-09-18T02:26:33.592Z,92.68
2022-09-18T02:27:33.582Z,92.68
2022-09-18T02:28:33.988Z,92.68
2022-09-18T02:29:33.553Z,92.88
2022-09-18T02:30:33.549Z,92.98
2022-09-18T02:31:33.625Z,92.88
2022-09-18T02:32:33.520Z,92.98
2022-09-18T02:33:33.837Z,92.98
2022-09-18T02:34:33.487Z,93.08
2022-09-18T02:35:33.466Z,92.98
2022-09-18T02:36:33.464Z,92.98
2022-09-18T02:37:33.447Z,93.08
2022-09-18T02:38:33.878Z,93.19
2022-09-18T02:39:33.425Z,93.19
2022-09-18T02:40:33.454Z,93.08
2022-09-18T02:41:33.395Z,92.88
2022-09-18T02:42:33.395Z,92.98
2022-09-18T02:43:33.785Z,93.08
2022-09-18T02:44:33.371Z,93.08
2022-09-18T02:45:33.342Z,93.19
2022-09-18T02:46:33.396Z,93.29
2022-09-18T02:47:33.322Z,93.29
2022-09-18T02:48:33.657Z,93.19
2022-09-18T02:49:33.293Z,93.29
2022-09-18T02:50:33.285Z,93.39
2022-09-18T02:51:33.283Z,93.29
2022-09-18T02:52:33.252Z,93.29
2022-09-18T02:53:33.672Z,93.29
2022-09-18T02:54:33.233Z,93.19
2022-09-18T02:55:33.224Z,93.29
2022-09-18T02:56:33.215Z,93.29
2022-09-18T02:57:33.199Z,93.29
2022-09-18T02:58:33.585Z,93.29
2022-09-18T02:59:33.176Z,93.29
2022-09-18T03:00:33.159Z,93.19
2022-09-18T03:01:33.189Z,93.29
2022-09-18T03:02:33.213Z,93.19
2022-09-18T03:03:33.453Z,93.29
2022-09-18T03:04:33.155Z,93.29
2022-09-18T03:05:33.092Z,93.29
2022-09-18T03:06:33.079Z,93.49
2022-09-18T03:07:33.070Z,93.39
2022-09-18T03:08:33.469Z,93.49
2022-09-18T03:09:33.040Z,93.70
2022-09-18T03:10:33.019Z,93.70
2022-09-18T03:11:33.019Z,93.80
2022-09-18T03:12:33.013Z,93.60
2022-09-18T03:13:33.433Z,93.60
2022-09-18T03:14:32.969Z,93.60
2022-09-18T03:15:32.967Z,93.60
2022-09-18T03:16:32.994Z,93.60
2022-09-18T03:17:32.940Z,93.70
2022-09-18T03:18:33.285Z,93.70
2022-09-18T03:19:32.916Z,93.80
2022-09-18T03:20:32.903Z,93.70
2022-09-18T03:21:32.898Z,93.80
2022-09-18T03:22:32.868Z,94.01
2022-09-18T03:23:33.287Z,94.01
2022-09-18T03:24:32.845Z,93.85
2022-09-18T03:25:32.854Z,93.54
2022-09-18T03:26:32.816Z,93.54
2022-09-18T03:27:32.822Z,93.49
2022-09-18T03:28:33.219Z,93.44
2022-09-18T03:29:32.786Z,93.44
2022-09-18T03:30:32.778Z,93.33
2022-09-18T03:31:32.804Z,93.33
2022-09-18T03:32:32.750Z,93.44
2022-09-18T03:33:33.112Z,93.44
2022-09-18T03:34:32.726Z,93.44
2022-09-18T03:35:32.704Z,93.54
2022-09-18T03:36:32.694Z,93.54
2022-09-18T03:37:32.682Z,93.33
2022-09-18T03:38:33.091Z,93.23
2022-09-18T03:39:32.662Z,93.13
2022-09-18T03:40:32.696Z,93.23
2022-09-18T03:41:32.621Z,93.33
2022-09-18T03:42:32.611Z,93.33
2022-09-18T03:43:33.013Z,93.13
2022-09-18T03:44:32.583Z,93.02
2022-09-18T03:45:32.571Z,92.93
2022-09-18T03:46:32.637Z,93.02
2022-09-18T03:47:36.301Z,93.13
2022-09-18T03:48:32.900Z,93.33
2022-09-18T03:49:32.531Z,93.33
2022-09-18T03:50:32.517Z,93.23
2022-09-18T03:51:32.499Z,92.82
2022-09-18T03:52:32.493Z,92.93
2022-09-18T03:53:32.823Z,92.93
2022-09-18T03:54:32.470Z,92.93
2022-09-18T03:55:32.448Z,93.02
2022-09-18T03:56:32.442Z,93.02
2022-09-18T03:57:32.434Z,92.93
2022-09-18T03:58:32.408Z,92.93
2022-09-18T03:59:32.826Z,92.82
2022-09-18T04:00:36.307Z,93.02
2022-09-18T04:01:32.424Z,93.13
2022-09-18T04:02:32.399Z,93.13
2022-09-18T04:03:32.346Z,93.13
2022-09-18T04:04:32.710Z,93.13
2022-09-18T04:05:32.331Z,93.02
2022-09-18T04:06:32.306Z,93.13
2022-09-18T04:07:32.311Z,93.33
2022-09-18T04:08:32.285Z,93.44
2022-09-18T04:09:32.674Z,93.54
2022-09-18T04:10:32.263Z,93.54
2022-09-18T04:11:32.245Z,93.54
2022-09-18T04:12:32.238Z,93.54
2022-09-18T04:13:32.224Z,93.54
2022-09-18T04:14:32.638Z,93.54
2022-09-18T04:15:32.198Z,93.44
2022-09-18T04:16:32.250Z,93.23
2022-09-18T04:17:32.174Z,93.33
2022-09-18T04:18:32.154Z,93.44
2022-09-18T04:19:32.584Z,93.33
2022-09-18T04:20:32.132Z,93.44
2022-09-18T04:21:32.121Z,93.54
2022-09-18T04:22:32.110Z,93.54
2022-09-18T04:23:32.092Z,93.33
2022-09-18T04:24:32.527Z,93.23
2022-09-18T04:25:32.063Z,93.23
2022-09-18T04:26:32.063Z,93.23
2022-09-18T04:27:32.043Z,93.44
2022-09-18T04:28:32.031Z,93.23
2022-09-18T04:29:32.450Z,93.33
2022-09-18T04:30:32.003Z,93.44
2022-09-18T04:31:32.050Z,93.54
2022-09-18T04:32:31.968Z,93.44
2022-09-18T04:33:31.970Z,93.33
2022-09-18T04:34:32.384Z,93.64
2022-09-18T04:35:31.939Z,93.85
2022-09-18T04:36:31.930Z,93.95
2022-09-18T04:37:31.913Z,94.05
2022-09-18T04:38:31.913Z,93.95
2022-09-18T04:39:32.197Z,94.05
2022-09-18T04:40:32.047Z,94.05
2022-09-18T04:41:31.857Z,94.15
2022-09-18T04:42:31.847Z,94.05
2022-09-18T04:43:31.837Z,94.15
2022-09-18T04:44:32.251Z,94.15
2022-09-18T04:45:31.818Z,94.26
2022-09-18T04:46:31.862Z,94.26
2022-09-18T04:47:31.785Z,94.15
2022-09-18T04:48:31.766Z,94.26
2022-09-18T04:49:32.073Z,94.36
2022-09-18T04:50:31.746Z,94.26
2022-09-18T04:51:31.736Z,94.36
2022-09-18T04:52:31.714Z,94.46
2022-09-18T04:53:31.715Z,94.46
2022-09-18T04:54:32.043Z,94.46
2022-09-18T04:55:31.683Z,94.46
2022-09-18T04:56:31.667Z,94.46
2022-09-18T04:57:31.654Z,94.46
2022-09-18T04:58:31.643Z,94.56
2022-09-18T04:59:32.071Z,94.26
2022-09-18T05:00:31.665Z,94.36
2022-09-18T05:01:31.703Z,94.15
2022-09-18T05:02:31.592Z,94.26
2022-09-18T05:03:31.585Z,94.26
2022-09-18T05:04:32.012Z,94.36
2022-09-18T05:05:31.552Z,94.36
2022-09-18T05:06:31.851Z,94.46
2022-09-18T05:07:31.531Z,94.46
2022-09-18T05:08:31.512Z,94.36
2022-09-18T05:09:31.867Z,94.26
2022-09-18T05:10:31.500Z,94.36
2022-09-18T05:11:31.478Z,94.46
2022-09-18T05:12:31.460Z,94.46
2022-09-18T05:13:31.456Z,94.46
2022-09-18T05:14:31.888Z,94.46
2022-09-18T05:15:31.425Z,94.46
2022-09-18T05:16:31.511Z,94.36
2022-09-18T05:17:31.408Z,94.36
2022-09-18T05:18:31.389Z,94.36
2022-09-18T05:19:31.687Z,94.36
2022-09-18T05:20:31.357Z,94.26
2022-09-18T05:21:31.348Z,94.26
2022-09-18T05:22:31.335Z,94.36
2022-09-18T05:23:31.327Z,94.26
2022-09-18T05:24:31.646Z,94.15
2022-09-18T05:25:31.307Z,94.15
2022-09-18T05:26:31.276Z,94.15
2022-09-18T05:27:31.296Z,94.15
2022-09-18T05:28:31.262Z,94.15
2022-09-18T05:29:31.608Z,94.05
2022-09-18T05:30:31.235Z,94.05
2022-09-18T05:31:31.300Z,94.05
2022-09-18T05:32:31.205Z,94.05
2022-09-18T05:33:31.197Z,94.15
2022-09-18T05:34:31.617Z,94.05
2022-09-18T05:35:31.164Z,93.90
2022-09-18T05:36:31.154Z,93.90
2022-09-18T05:37:31.143Z,93.90
2022-09-18T05:38:31.123Z,93.80
2022-09-18T05:39:31.467Z,93.90
2022-09-18T05:40:31.230Z,93.80
2022-09-18T05:41:31.093Z,93.90
2022-09-18T05:42:31.080Z,93.80
2022-09-18T05:43:31.063Z,93.80
2022-09-18T05:44:31.362Z,93.60
2022-09-18T05:45:31.054Z,93.70
2022-09-18T05:46:31.107Z,93.70
2022-09-18T05:47:31.059Z,93.60
2022-09-18T05:48:31.009Z,93.39
2022-09-18T05:49:31.368Z,93.29
2022-09-18T05:50:30.973Z,93.39
2022-09-18T05:51:30.964Z,93.19
2022-09-18T05:52:30.979Z,93.19
2022-09-18T05:53:30.940Z,93.29
2022-09-18T05:54:30.929Z,93.29
2022-09-18T05:55:32.119Z,93.29
2022-09-18T05:56:30.900Z,93.29
2022-09-18T05:57:30.888Z,93.19
2022-09-18T05:58:30.879Z,93.29
2022-09-18T05:59:30.867Z,93.29
2022-09-18T06:00:31.201Z,93.39
2022-09-18T06:01:30.922Z,93.39
2022-09-18T06:02:30.891Z,93.39
2022-09-18T06:03:30.819Z,93.39
2022-09-18T06:04:30.797Z,93.49
2022-09-18T06:05:31.219Z,93.49
2022-09-18T06:06:30.787Z,93.39
2022-09-18T06:07:30.759Z,93.29
2022-09-18T06:08:30.756Z,93.25
2022-09-18T06:09:30.737Z,93.25
2022-09-18T06:10:31.149Z,93.35
2022-09-18T06:11:30.711Z,93.04
2022-09-18T06:12:30.686Z,93.15
2022-09-18T06:13:30.698Z,93.45
2022-09-18T06:14:30.682Z,93.45
2022-09-18T06:15:31.016Z,93.45
2022-09-18T06:16:30.719Z,93.45
2022-09-18T06:17:30.627Z,93.45
2022-09-18T06:18:37.612Z,93.35
2022-09-18T06:19:37.619Z,93.45
2022-09-18T06:20:30.970Z,93.35
2022-09-18T06:21:30.577Z,93.35
2022-09-18T06:22:30.565Z,93.35
2022-09-18T06:23:30.565Z,93.35
2022-09-18T06:24:30.553Z,93.35
2022-09-18T06:25:31.008Z,93.45
2022-09-18T06:26:30.544Z,93.55
2022-09-18T06:27:30.517Z,93.55
2022-09-18T06:28:30.490Z,93.55
2022-09-18T06:29:30.476Z,93.55
2022-09-18T06:30:30.845Z,93.35
2022-09-18T06:31:30.534Z,93.35
2022-09-18T06:32:30.439Z,93.35
2022-09-18T06:33:30.453Z,93.25
2022-09-18T06:34:30.414Z,93.45
2022-09-18T06:35:30.712Z,93.45
2022-09-18T06:36:30.397Z,93.55
2022-09-18T06:37:30.373Z,93.66
2022-09-18T06:38:30.370Z,93.66
2022-09-18T06:39:30.353Z,93.76
2022-09-18T06:40:30.857Z,93.76
2022-09-18T06:41:30.343Z,93.86
2022-09-18T06:42:30.304Z,93.86
2022-09-18T06:43:30.302Z,93.96
2022-09-18T06:44:30.292Z,94.07
2022-09-18T06:45:30.726Z,93.96
2022-09-18T06:46:30.338Z,94.07
2022-09-18T06:47:30.318Z,94.07
2022-09-18T06:48:30.348Z,94.07
2022-09-18T06:49:30.277Z,94.07
2022-09-18T06:50:30.564Z,94.02
2022-09-18T06:51:30.219Z,93.92
2022-09-18T06:52:30.180Z,93.92
2022-09-18T06:53:30.173Z,93.92
2022-09-18T06:54:30.179Z,93.82
2022-09-18T06:55:30.481Z,93.71
2022-09-18T06:56:30.135Z,93.82
2022-09-18T06:57:30.228Z,93.82
2022-09-18T06:58:30.227Z,93.82
2022-09-18T06:59:30.149Z,93.51
2022-09-18T07:00:30.509Z,93.57
2022-09-18T07:01:30.223Z,93.47
2022-09-18T07:02:30.183Z,93.47
2022-09-18T07:03:30.139Z,93.37
2022-09-18T07:04:30.130Z,93.37
2022-09-18T07:05:30.358Z,93.22
2022-09-18T07:06:30.064Z,93.01
2022-09-18T07:07:30.216Z,92.81
2022-09-18T07:08:30.297Z,92.81
2022-09-18T07:09:30.136Z,92.60
2022-09-18T07:10:30.437Z,92.71
2022-09-18T07:11:30.038Z,92.71
2022-09-18T07:12:30.109Z,92.50
2022-09-18T07:13:29.936Z,92.15
2022-09-18T07:14:29.914Z,92.15
2022-09-18T07:15:30.228Z,91.85
2022-09-18T07:16:30.011Z,91.60
2022-09-18T07:17:30.004Z,91.60
2022-09-18T07:18:29.875Z,91.19
2022-09-18T07:19:29.836Z,90.84
2022-09-18T07:20:30.262Z,90.94
2022-09-18T07:21:29.805Z,90.84
2022-09-18T07:22:29.813Z,90.59
2022-09-18T07:23:29.796Z,89.88
2022-09-18T07:24:29.789Z,89.58
2022-09-18T07:25:30.201Z,89.47
2022-09-18T07:26:29.766Z,89.06
2022-09-18T07:27:29.733Z,88.51
2022-09-18T07:28:29.734Z,88.41
2022-09-18T07:29:29.714Z,88.37
2022-09-18T07:30:30.025Z,88.47
2022-09-18T07:31:29.718Z,88.06
2022-09-18T07:32:29.726Z,88.02
2022-09-18T07:33:29.676Z,87.51
2022-09-18T07:34:29.653Z,87.61
2022-09-18T07:35:30.074Z,87.51
2022-09-18T07:36:29.632Z,87.71
2022-09-18T07:37:29.623Z,87.82
2022-09-18T07:38:29.601Z,87.41
2022-09-18T07:39:29.591Z,87.14
2022-09-18T07:40:29.626Z,86.94
2022-09-18T07:41:29.880Z,87.24
2022-09-18T07:42:29.550Z,87.24
2022-09-18T07:43:29.523Z,87.45
2022-09-18T07:44:29.525Z,87.35
2022-09-18T07:45:29.501Z,87.65
2022-09-18T07:46:29.926Z,87.76
2022-09-18T07:47:29.483Z,87.65
2022-09-18T07:48:29.471Z,87.45
2022-09-18T07:49:29.450Z,87.45
2022-09-18T07:50:29.460Z,87.45
2022-09-18T07:51:29.850Z,87.24
2022-09-18T07:52:29.478Z,87.65
2022-09-18T07:53:29.400Z,87.85
2022-09-18T07:54:29.391Z,87.96
2022-09-18T07:55:29.381Z,87.76
2022-09-18T07:56:29.817Z,87.59
2022-09-18T07:57:29.353Z,87.59
2022-09-18T07:58:29.338Z,87.79
2022-09-18T07:59:29.342Z,87.79
2022-09-18T08:00:29.318Z,87.90
2022-09-18T08:01:29.742Z,87.70
2022-09-18T08:02:29.511Z,87.76
2022-09-18T08:03:29.274Z,87.65
2022-09-18T08:04:29.265Z,87.14
2022-09-18T08:05:29.247Z,87.04
2022-09-18T08:06:29.566Z,86.80
2022-09-18T08:07:29.229Z,86.49
2022-09-18T08:08:29.219Z,86.59
2022-09-18T08:09:29.197Z,86.08
2022-09-18T08:10:29.192Z,86.18
2022-09-18T08:11:29.207Z,86.39
2022-09-18T08:12:29.167Z,86.49
2022-09-18T08:13:29.154Z,86.39
2022-09-18T08:14:29.344Z,86.39
2022-09-18T08:15:29.121Z,86.45
2022-09-18T08:16:29.458Z,86.24
2022-09-18T08:17:29.104Z,85.94
2022-09-18T08:18:29.095Z,85.94
2022-09-18T08:19:29.069Z,85.63
2022-09-18T08:20:29.063Z,85.43
2022-09-18T08:21:29.366Z,85.53
2022-09-18T08:22:29.025Z,85.74
2022-09-18T08:23:29.027Z,85.63
2022-09-18T08:24:29.009Z,86.15
2022-09-18T08:25:28.976Z,86.04
2022-09-18T08:26:29.283Z,86.24
2022-09-18T08:27:28.954Z,86.04
2022-09-18T08:28:28.945Z,86.18
2022-09-18T08:29:28.924Z,85.98
2022-09-18T08:30:28.933Z,86.08
2022-09-18T08:31:29.046Z,85.98
2022-09-18T08:32:28.895Z,86.08
2022-09-18T08:33:28.907Z,86.29
2022-09-18T08:34:28.884Z,86.33
2022-09-18T08:35:28.857Z,86.63
2022-09-18T08:36:28.891Z,86.53
2022-09-18T08:37:28.844Z,86.63
2022-09-18T08:38:28.813Z,86.83
2022-09-18T08:39:28.799Z,87.04
2022-09-18T08:40:28.810Z,86.43
2022-09-18T08:41:29.201Z,86.12
2022-09-18T08:42:28.761Z,86.63
2022-09-18T08:43:28.750Z,86.94
2022-09-18T08:44:28.752Z,87.04
2022-09-18T08:45:28.723Z,86.83
2022-09-18T08:46:29.231Z,86.83
2022-09-18T08:47:28.710Z,86.83
2022-09-18T08:48:28.694Z,86.63
2022-09-18T08:49:28.686Z,86.83
2022-09-18T08:50:28.691Z,87.04
2022-09-18T08:51:29.065Z,87.04
2022-09-18T08:52:28.641Z,87.04
2022-09-18T08:53:28.618Z,86.53
2022-09-18T08:54:28.611Z,86.43
2022-09-18T08:55:28.589Z,86.53
2022-09-18T08:56:28.942Z,86.63
2022-09-18T08:57:28.559Z,86.63
2022-09-18T08:58:28.562Z,86.12
2022-09-18T08:59:28.546Z,86.22
2022-09-18T09:00:28.539Z,86.53
2022-09-18T09:01:28.859Z,86.12
2022-09-18T09:02:28.535Z,85.82
2022-09-18T09:03:28.497Z,85.71
2022-09-18T09:04:28.505Z,85.51
2022-09-18T09:05:28.465Z,85.57
2022-09-18T09:06:28.502Z,85.68
2022-09-18T09:07:28.437Z,85.77
2022-09-18T09:08:28.428Z,85.37
2022-09-18T09:09:28.418Z,84.86
2022-09-18T09:10:28.405Z,85.06
2022-09-18T09:11:28.406Z,85.37
2022-09-18T09:12:28.737Z,85.16
2022-09-18T09:13:28.361Z,84.86
2022-09-18T09:14:52.752Z,84.75
2022-09-18T09:15:29.328Z,84.82
2022-09-18T09:16:28.373Z,84.61
2022-09-18T09:17:28.726Z,84.00
2022-09-18T09:18:28.298Z,84.47
2022-09-18T09:19:28.285Z,84.06
2022-09-18T09:20:28.277Z,84.47
2022-09-18T09:21:28.254Z,84.58
2022-09-18T09:22:28.598Z,84.53
2022-09-18T09:23:28.229Z,84.03
2022-09-18T09:24:28.213Z,84.33
2022-09-18T09:25:28.203Z,83.72
2022-09-18T09:26:28.198Z,83.82
2022-09-18T09:27:28.602Z,84.03
2022-09-18T09:28:28.162Z,83.92
2022-09-18T09:29:28.164Z,83.82
2022-09-18T09:30:28.132Z,83.72
2022-09-18T09:31:28.189Z,83.51
2022-09-18T09:32:28.570Z,83.48
2022-09-18T09:33:28.104Z,83.07
2022-09-18T09:34:28.095Z,83.48
2022-09-18T09:35:28.073Z,82.52
2022-09-18T09:36:28.064Z,81.91
2022-09-18T09:37:31.828Z,82.73
2022-09-18T09:38:29.033Z,82.42
2022-09-18T09:39:28.020Z,81.40
2022-09-18T09:40:28.232Z,81.57
2022-09-18T09:41:28.000Z,81.46
2022-09-18T09:42:28.421Z,81.37
2022-09-18T09:43:27.962Z,81.16
2022-09-18T09:44:27.969Z,80.96
2022-09-18T09:45:27.944Z,81.57
2022-09-18T09:46:27.974Z,81.20
2022-09-18T09:47:28.332Z,81.91
2022-09-18T09:48:27.908Z,81.81
2022-09-18T09:49:27.891Z,81.10
2022-09-18T09:50:27.889Z,81.81
2022-09-18T09:51:27.874Z,81.81
2022-09-18T09:52:28.262Z,82.01
2022-09-18T09:53:27.850Z,82.42
2022-09-18T09:54:27.830Z,82.07
2022-09-18T09:55:27.813Z,81.98
2022-09-18T09:56:27.801Z,81.37
2022-09-18T09:57:28.216Z,81.63
2022-09-18T09:58:27.779Z,80.92
2022-09-18T09:59:27.759Z,80.62
2022-09-18T10:00:27.879Z,80.41
2022-09-18T10:01:27.727Z,80.41
2022-09-18T10:02:28.173Z,80.62
2022-09-18T10:03:27.708Z,80.72
2022-09-18T10:04:27.698Z,80.21
2022-09-18T10:05:27.679Z,79.80
2022-09-18T10:06:27.674Z,80.21
2022-09-18T10:07:28.012Z,79.90
2022-09-18T10:08:27.636Z,80.41
2022-09-18T10:09:34.623Z,80.41
2022-09-18T10:10:27.620Z,80.00
2022-09-18T10:11:27.630Z,80.11
2022-09-18T10:12:27.991Z,80.21
2022-09-18T10:13:27.575Z,79.97
2022-09-18T10:14:27.572Z,80.27
2022-09-18T10:15:27.554Z,79.25
2022-09-18T10:16:27.663Z,79.05
2022-09-18T10:17:27.522Z,78.30
2022-09-18T10:18:27.942Z,78.06
2022-09-18T10:19:27.509Z,77.36
2022-09-18T10:20:27.489Z,77.66
2022-09-18T10:21:27.471Z,77.62
2022-09-18T10:22:27.472Z,76.71
2022-09-18T10:23:31.809Z,76.87
2022-09-18T10:24:28.437Z,76.43
2022-09-18T10:25:27.429Z,75.52
2022-09-18T10:26:27.412Z,74.68
2022-09-18T10:27:27.398Z,73.46
2022-09-18T10:28:27.421Z,73.53
2022-09-18T10:29:27.369Z,73.43
2022-09-18T10:30:27.364Z,73.09
2022-09-18T10:31:27.364Z,72.38
2022-09-18T10:32:27.339Z,72.31
2022-09-18T10:33:27.367Z,72.01
2022-09-18T10:34:27.320Z,71.77
2022-09-18T10:35:27.419Z,71.47
2022-09-18T10:36:27.283Z,71.44
2022-09-18T10:37:27.271Z,70.79
2022-09-18T10:38:27.288Z,69.78
2022-09-18T10:39:31.225Z,69.78
2022-09-18T10:40:27.269Z,70.36
2022-09-18T10:41:27.219Z,69.45
2022-09-18T10:42:27.218Z,69.04
2022-09-18T10:43:27.499Z,67.83
2022-09-18T10:44:27.184Z,68.06
2022-09-18T10:45:27.177Z,68.84
2022-09-18T10:46:27.182Z,68.03
2022-09-18T10:47:27.138Z,67.90
2022-09-18T10:48:27.167Z,68.27
2022-09-18T10:49:27.126Z,67.26
2022-09-18T10:50:29.426Z,68.51
2022-09-18T10:51:27.097Z,67.22
2022-09-18T10:52:27.076Z,67.43
2022-09-18T10:53:27.409Z,67.93
2022-09-18T10:54:27.076Z,68.13
2022-09-18T10:55:27.036Z,68.54
2022-09-18T10:56:27.025Z,68.60
2022-09-18T10:57:27.007Z,66.78
2022-09-18T10:58:27.040Z,65.78
2022-09-18T10:59:26.986Z,65.91
2022-09-18T11:00:27.070Z,65.81
2022-09-18T11:01:26.954Z,66.11
2022-09-18T11:02:27.085Z,66.11
2022-09-18T11:03:27.247Z,66.21
2022-09-18T11:04:26.934Z,66.69
2022-09-18T11:05:26.895Z,66.35
2022-09-18T11:06:26.896Z,66.35
2022-09-18T11:07:26.877Z,66.62
2022-09-18T11:08:27.096Z,64.73
2022-09-18T11:09:26.858Z,65.04
2022-09-18T11:10:26.855Z,65.78
2022-09-18T11:11:26.840Z,65.98
2022-09-18T11:12:26.816Z,65.75
2022-09-18T11:13:27.118Z,65.71
2022-09-18T11:14:26.799Z,64.73
2022-09-18T11:15:26.782Z,65.04
2022-09-18T11:16:26.814Z,65.67
2022-09-18T11:17:26.844Z,65.37
2022-09-18T11:18:27.055Z,65.81
2022-09-18T11:19:26.727Z,66.72
2022-09-18T11:20:26.714Z,65.91
2022-09-18T11:21:26.694Z,66.01
2022-09-18T11:22:26.695Z,66.21
2022-09-18T11:23:26.905Z,66.41
2022-09-18T11:24:26.667Z,65.50
2022-09-18T11:25:26.673Z,66.11
2022-09-18T11:26:26.645Z,65.61
2022-09-18T11:27:26.625Z,65.33
2022-09-18T11:28:26.941Z,66.14
2022-09-18T11:29:26.668Z,66.44
2022-09-18T11:30:26.590Z,66.14
2022-09-18T11:31:26.628Z,65.94
2022-09-18T11:32:26.564Z,65.81
2022-09-18T11:33:26.844Z,66.01
2022-09-18T11:34:26.536Z,65.91
2022-09-18T11:35:26.525Z,65.10
2022-09-18T11:36:26.503Z,65.84
2022-09-18T11:37:26.523Z,65.33
2022-09-18T11:38:26.612Z,65.20
2022-09-18T11:39:26.478Z,65.00
2022-09-18T11:40:26.526Z,64.59
2022-09-18T11:41:26.445Z,64.79
2022-09-18T11:42:26.433Z,64.29
2022-09-18T11:43:26.803Z,64.39
2022-09-18T11:44:26.431Z,64.36
2022-09-18T11:45:26.472Z,64.73
2022-09-18T11:46:26.588Z,64.03
2022-09-18T11:47:26.362Z,62.51
2022-09-18T11:48:26.372Z,62.18
2022-09-18T11:49:26.612Z,61.88
2022-09-18T11:50:26.418Z,61.98
2022-09-18T11:51:26.329Z,60.87
2022-09-18T11:52:26.374Z,61.68
2022-09-18T11:53:26.322Z,61.88
2022-09-18T11:54:26.832Z,62.59
2022-09-18T11:55:26.273Z,62.68
2022-09-18T11:56:26.722Z,62.31
2022-09-18T11:57:26.311Z,63.32
2022-09-18T11:58:26.230Z,62.92
2022-09-18T11:59:26.321Z,62.04
2022-09-18T12:00:26.229Z,63.25
2022-09-18T12:01:26.202Z,62.62
2022-09-18T12:02:26.221Z,63.35
2022-09-18T12:03:26.192Z,62.82
2022-09-18T12:04:26.185Z,62.85
2022-09-18T12:05:26.201Z,63.68
2022-09-18T12:06:26.991Z,63.08
2022-09-18T12:07:39.461Z,63.81
2022-09-18T12:08:24.746Z,63.84
2022-09-18T12:09:25.329Z,63.67
2022-09-18T12:10:25.053Z,63.78
2022-09-18T12:11:24.693Z,63.87
2022-09-18T12:12:24.678Z,64.41
2022-09-18T12:13:24.680Z,64.11
2022-09-18T12:14:25.218Z,64.61
2022-09-18T12:15:24.669Z,64.72
2022-09-18T12:16:24.802Z,64.82
2022-09-18T12:17:24.734Z,65.45
2022-09-18T12:18:24.814Z,65.36
2022-09-18T12:19:25.183Z,65.66
2022-09-18T12:20:24.592Z,65.76
2022-09-18T12:21:24.603Z,66.16
2022-09-18T12:22:24.571Z,65.86
2022-09-18T12:23:24.550Z,65.86
2022-09-18T12:24:24.667Z,65.86
2022-09-18T12:25:24.498Z,65.93
2022-09-18T12:26:24.637Z,66.37
2022-09-18T12:27:27.638Z,66.44
2022-09-18T12:28:24.586Z,66.33
2022-09-18T12:29:25.091Z,65.12
2022-09-18T12:30:24.501Z,65.32
2022-09-18T12:31:24.610Z,64.58
2022-09-18T12:32:24.451Z,64.58
2022-09-18T12:33:24.390Z,64.45
2022-09-18T12:34:24.699Z,64.55
2022-09-18T12:35:24.449Z,64.02
2022-09-18T12:36:24.377Z,63.51
2022-09-18T12:37:24.346Z,63.31
2022-09-18T12:38:24.320Z,62.98
2022-09-18T12:39:25.019Z,62.77
2022-09-18T12:40:25.028Z,62.98
2022-09-18T12:41:24.976Z,63.55
2022-09-18T12:42:25.124Z,63.25
2022-09-18T12:43:24.973Z,63.32
2022-09-18T12:44:25.222Z,63.05
2022-09-18T12:45:24.989Z,62.95
2022-09-18T12:46:24.901Z,63.45
2022-09-18T12:47:25.014Z,63.55
2022-09-18T12:48:24.858Z,64.26
2022-09-18T12:49:24.936Z,63.65
2022-09-18T12:50:24.867Z,63.25
2022-09-18T12:51:24.867Z,63.25
2022-09-18T12:52:27.564Z,63.45